createdAt,value
2022-11-01T00:00:22.363Z,1003.56
2022-11-01T00:01:22.277Z,1003.55
2022-11-01T00:02:22.262Z,1003.59
2022-11-01T00:03:22.207Z,1003.59
2022-11-01T00:04:22.212Z,1003.57
2022-11-01T00:05:22.173Z,1003.56
2022-11-01T00:06:22.180Z,1003.55
2022-11-01T00:07:22.299Z,1003.54
2022-11-01T00:08:22.259Z,1003.52
2022-11-01T00:09:22.151Z,1003.50
2022-11-01T00:10:22.130Z,1003.54
2022-11-01T00:11:22.127Z,1003.51
2022-11-01T00:12:22.126Z,1003.51
2022-11-01T00:13:22.105Z,1003.53
2022-11-01T00:14:22.072Z,1003.52
2022-11-01T00:15:22.064Z,1003.53
2022-11-01T00:16:22.065Z,1003.55
2022-11-01T00:17:22.077Z,1003.50
2022-11-01T00:18:22.087Z,1003.53
2022-11-01T00:19:22.237Z,1003.55
2022-11-01T00:20:22.021Z,1003.57
2022-11-01T00:21:22.077Z,1003.53
2022-11-01T00:22:22.027Z,1003.52
2022-11-01T00:23:22.016Z,1003.54
2022-11-01T00:24:22.004Z,1003.54
2022-11-01T00:25:21.975Z,1003.55
2022-11-01T00:26:21.976Z,1003.55
2022-11-01T00:27:22.093Z,1003.51
2022-11-01T00:28:21.943Z,1003.50
2022-11-01T00:29:21.905Z,1003.50
2022-11-01T00:30:21.910Z,1003.55
2022-11-01T00:31:21.887Z,1003.54
2022-11-01T00:32:21.900Z,1003.55
2022-11-01T00:33:21.894Z,1003.54
2022-11-01T00:34:21.865Z,1003.53
2022-11-01T00:35:21.841Z,1003.52
2022-11-01T00:36:21.872Z,1003.54
2022-11-01T00:37:22.077Z,1003.49
2022-11-01T00:38:21.834Z,1003.45
2022-11-01T00:39:21.800Z,1003.43
2022-11-01T00:40:21.809Z,1003.42
2022-11-01T00:41:22.897Z,1003.47
2022-11-01T00:42:21.764Z,1003.48
2022-11-01T00:43:21.757Z,1003.42
2022-11-01T00:44:21.748Z,1003.34
2022-11-01T00:45:21.744Z,1003.34
2022-11-01T00:46:21.738Z,1003.30
2022-11-01T00:47:21.727Z,1003.27
2022-11-01T00:48:21.746Z,1003.30
2022-11-01T00:49:21.676Z,1003.26
2022-11-01T00:50:21.677Z,1003.24
2022-11-01T00:51:21.686Z,1003.19
2022-11-01T00:52:21.714Z,1003.20
2022-11-01T00:53:21.662Z,1003.20
2022-11-01T00:54:21.656Z,1003.16
2022-11-01T00:55:21.618Z,1003.14
2022-11-01T00:56:21.689Z,1003.08
2022-11-01T00:57:21.616Z,1003.11
2022-11-01T00:58:21.717Z,1003.11
2022-11-01T00:59:21.607Z,1003.06
2022-11-01T01:00:21.613Z,1003.05
2022-11-01T01:01:21.760Z,1003.02
2022-11-01T01:02:21.593Z,1003.04
2022-11-01T01:03:21.552Z,1003.06
2022-11-01T01:04:21.538Z,1003.01
2022-11-01T01:05:21.521Z,1003.04
2022-11-01T01:06:21.507Z,1003.05
2022-11-01T01:07:21.501Z,1003.07
2022-11-01T01:08:21.467Z,1003.05
2022-11-01T01:09:21.494Z,1003.02
2022-11-01T01:10:21.485Z,1003.00
2022-11-01T01:11:22.122Z,1002.97
2022-11-01T01:12:21.452Z,1002.94
2022-11-01T01:13:21.437Z,1002.94
2022-11-01T01:14:21.571Z,1002.93
2022-11-01T01:15:21.385Z,1002.95
2022-11-01T01:16:21.401Z,1002.97
2022-11-01T01:17:21.460Z,1002.95
2022-11-01T01:18:21.378Z,1002.92
2022-11-01T01:19:21.400Z,1002.84
2022-11-01T01:20:21.365Z,1002.85
2022-11-01T01:21:21.427Z,1002.89
2022-11-01T01:22:21.338Z,1002.85
2022-11-01T01:23:21.319Z,1002.89
2022-11-01T01:24:21.361Z,1002.90
2022-11-01T01:25:21.321Z,1002.87
2022-11-01T01:26:21.318Z,1002.89
2022-11-01T01:27:21.280Z,1002.89
2022-11-01T01:28:21.275Z,1002.92
2022-11-01T01:29:21.598Z,1002.85
2022-11-01T01:30:21.257Z,1002.88
2022-11-01T01:31:21.248Z,1002.87
2022-11-01T01:32:21.214Z,1002.87
2022-11-01T01:33:21.214Z,1002.83
2022-11-01T01:34:21.210Z,1002.81
2022-11-01T01:35:21.186Z,1002.83
2022-11-01T01:36:21.208Z,1002.73
2022-11-01T01:37:21.169Z,1002.71
2022-11-01T01:38:21.156Z,1002.71
2022-11-01T01:39:21.141Z,1002.69
2022-11-01T01:40:21.137Z,1002.68
2022-11-01T01:41:21.128Z,1002.66
2022-11-01T01:42:21.105Z,1002.61
2022-11-01T01:43:21.120Z,1002.62
2022-11-01T01:44:21.092Z,1002.62
2022-11-01T01:45:21.078Z,1002.62
2022-11-01T01:46:21.093Z,1002.59
2022-11-01T01:47:21.070Z,1002.56
2022-11-01T01:48:21.085Z,1002.54
2022-11-01T01:49:21.119Z,1002.60
2022-11-01T01:50:21.118Z,1002.57
2022-11-01T01:51:21.110Z,1002.55
2022-11-01T01:52:21.010Z,1002.57
2022-11-01T01:53:20.997Z,1002.65
2022-11-01T01:54:20.988Z,1002.64
2022-11-01T01:55:20.979Z,1002.61
2022-11-01T01:56:20.960Z,1002.60
2022-11-01T01:57:20.942Z,1002.59
2022-11-01T01:58:20.932Z,1002.56
2022-11-01T01:59:20.929Z,1002.63
2022-11-01T02:00:21.071Z,1002.66
2022-11-01T02:01:22.051Z,1002.67
2022-11-01T02:02:21.846Z,1002.66
2022-11-01T02:03:20.899Z,1002.67
2022-11-01T02:04:20.864Z,1002.61
2022-11-01T02:05:20.875Z,1002.58
2022-11-01T02:06:20.911Z,1002.57
2022-11-01T02:07:21.799Z,1002.55
2022-11-01T02:08:20.854Z,1002.52
2022-11-01T02:09:20.819Z,1002.50
2022-11-01T02:10:20.851Z,1002.45
2022-11-01T02:11:20.933Z,1002.38
2022-11-01T02:12:20.818Z,1002.42
2022-11-01T02:13:20.832Z,1002.44
2022-11-01T02:14:20.800Z,1002.45
2022-11-01T02:15:20.782Z,1002.43
2022-11-01T02:16:20.764Z,1002.41
2022-11-01T02:17:20.729Z,1002.43
2022-11-01T02:18:20.705Z,1002.39
2022-11-01T02:19:20.740Z,1002.40
2022-11-01T02:20:20.732Z,1002.43
2022-11-01T02:21:20.762Z,1002.44
2022-11-01T02:22:20.669Z,1002.36
2022-11-01T02:23:20.745Z,1002.40
2022-11-01T02:24:20.697Z,1002.35
2022-11-01T02:25:20.644Z,1002.30
2022-11-01T02:26:20.648Z,1002.28
2022-11-01T02:27:21.299Z,1002.26
2022-11-01T02:28:20.642Z,1002.25
2022-11-01T02:29:20.590Z,1002.25
2022-11-01T02:30:20.613Z,1002.14
2022-11-01T02:31:20.816Z,1002.23
2022-11-01T02:32:20.550Z,1002.24
2022-11-01T02:33:20.549Z,1002.21
2022-11-01T02:34:20.738Z,1002.11
2022-11-01T02:35:20.548Z,1002.11
2022-11-01T02:36:20.509Z,1001.93
2022-11-01T02:37:20.510Z,1001.92
2022-11-01T02:38:20.500Z,1002.01
2022-11-01T02:39:20.488Z,1002.03
2022-11-01T02:40:20.459Z,1002.07
2022-11-01T02:41:20.449Z,1002.02
2022-11-01T02:42:20.451Z,1002.03
2022-11-01T02:43:20.425Z,1002.10
2022-11-01T02:44:20.432Z,1002.13
2022-11-01T02:45:20.415Z,1002.11
2022-11-01T02:46:20.511Z,1002.12
2022-11-01T02:47:20.393Z,1002.07
2022-11-01T02:48:20.392Z,1002.07
2022-11-01T02:49:20.406Z,1001.98
2022-11-01T02:50:20.466Z,1001.98
2022-11-01T02:51:20.350Z,1001.98
2022-11-01T02:52:20.407Z,1001.98
2022-11-01T02:53:20.352Z,1001.92
2022-11-01T02:54:20.308Z,1001.94
2022-11-01T02:55:20.320Z,1001.93
2022-11-01T02:56:20.291Z,1001.92
2022-11-01T02:57:20.312Z,1001.96
2022-11-01T02:58:20.279Z,1001.93
2022-11-01T02:59:20.310Z,1001.90
2022-11-01T03:00:20.255Z,1001.91
2022-11-01T03:01:20.359Z,1001.94
2022-11-01T03:02:20.475Z,1002.00
2022-11-01T03:03:20.219Z,1002.01
2022-11-01T03:04:20.265Z,1001.97
2022-11-01T03:05:20.236Z,1002.04
2022-11-01T03:06:20.192Z,1002.06
2022-11-01T03:07:20.213Z,1002.07
2022-11-01T03:08:20.214Z,1002.04
2022-11-01T03:09:20.177Z,1001.99
2022-11-01T03:10:20.258Z,1001.99
2022-11-01T03:11:20.162Z,1001.98
2022-11-01T03:12:20.191Z,1001.95
2022-11-01T03:13:20.125Z,1001.93
2022-11-01T03:14:20.090Z,1001.95
2022-11-01T03:15:20.205Z,1001.93
2022-11-01T03:16:20.093Z,1001.89
2022-11-01T03:17:20.145Z,1001.95
2022-11-01T03:18:21.146Z,1001.93
2022-11-01T03:19:20.057Z,1001.96
2022-11-01T03:20:20.067Z,1002.00
2022-11-01T03:21:20.028Z,1001.95
2022-11-01T03:22:20.006Z,1001.95
2022-11-01T03:23:21.166Z,1001.95
2022-11-01T03:24:19.982Z,1001.97
2022-11-01T03:25:19.988Z,1001.96
2022-11-01T03:26:19.954Z,1001.96
2022-11-01T03:27:20.003Z,1002.00
2022-11-01T03:28:19.946Z,1002.02
2022-11-01T03:29:19.953Z,1001.99
2022-11-01T03:30:19.954Z,1002.01
2022-11-01T03:31:19.954Z,1002.05
2022-11-01T03:32:19.895Z,1002.07
2022-11-01T03:33:20.037Z,1002.08
2022-11-01T03:34:19.872Z,1002.06
2022-11-01T03:35:19.875Z,1002.11
2022-11-01T03:36:19.875Z,1001.98
2022-11-01T03:37:19.851Z,1002.08
2022-11-01T03:38:19.842Z,1002.04
2022-11-01T03:39:19.858Z,1002.05
2022-11-01T03:40:19.819Z,1002.06
2022-11-01T03:41:20.662Z,1002.03
2022-11-01T03:42:20.675Z,1002.02
2022-11-01T03:43:19.789Z,1002.02
2022-11-01T03:44:19.776Z,1002.04
2022-11-01T03:45:19.824Z,1002.05
2022-11-01T03:46:19.775Z,1002.01
2022-11-01T03:47:19.736Z,1002.07
2022-11-01T03:48:19.724Z,1002.09
2022-11-01T03:49:19.715Z,1002.09
2022-11-01T03:50:19.705Z,1002.02
2022-11-01T03:51:19.702Z,1002.03
2022-11-01T03:52:19.722Z,1002.01
2022-11-01T03:53:19.675Z,1001.98
2022-11-01T03:54:19.685Z,1001.98
2022-11-01T03:55:19.682Z,1001.99
2022-11-01T03:56:19.647Z,1002.01
2022-11-01T03:57:19.634Z,1001.98
2022-11-01T03:58:19.614Z,1001.98
2022-11-01T03:59:19.606Z,1002.03
2022-11-01T04:00:19.617Z,1002.07
2022-11-01T04:01:19.657Z,1002.09
2022-11-01T04:02:19.816Z,1002.05
2022-11-01T04:03:19.554Z,1002.06
2022-11-01T04:04:19.588Z,1002.08
2022-11-01T04:05:19.557Z,1002.09
2022-11-01T04:06:19.549Z,1002.03
2022-11-01T04:07:19.539Z,1002.01
2022-11-01T04:08:19.526Z,1002.04
2022-11-01T04:09:19.521Z,1002.06
2022-11-01T04:10:19.487Z,1002.13
2022-11-01T04:11:19.484Z,1002.17
2022-11-01T04:12:19.474Z,1002.19
2022-11-01T04:13:19.465Z,1002.19
2022-11-01T04:14:19.457Z,1002.22
2022-11-01T04:15:19.436Z,1002.16
2022-11-01T04:16:19.440Z,1002.21
2022-11-01T04:17:19.424Z,1002.22
2022-11-01T04:18:19.396Z,1002.19
2022-11-01T04:19:19.412Z,1002.16
2022-11-01T04:20:19.379Z,1002.20
2022-11-01T04:21:19.375Z,1002.23
2022-11-01T04:22:22.071Z,1002.24
2022-11-01T04:23:20.380Z,1002.22
2022-11-01T04:24:20.427Z,1002.26
2022-11-01T04:25:19.319Z,1002.19
2022-11-01T04:26:19.315Z,1002.23
2022-11-01T04:27:20.163Z,1002.21
2022-11-01T04:28:19.300Z,1002.20
2022-11-01T04:29:19.289Z,1002.19
2022-11-01T04:30:19.269Z,1002.19
2022-11-01T04:31:19.265Z,1002.16
2022-11-01T04:32:19.982Z,1002.22
2022-11-01T04:33:19.248Z,1002.24
2022-11-01T04:34:19.260Z,1002.22
2022-11-01T04:35:19.507Z,1002.24
2022-11-01T04:36:19.510Z,1002.25
2022-11-01T04:37:19.243Z,1002.20
2022-11-01T04:38:19.183Z,1002.25
2022-11-01T04:39:19.180Z,1002.20
2022-11-01T04:40:19.212Z,1002.21
2022-11-01T04:41:19.146Z,1002.19
2022-11-01T04:42:19.133Z,1002.15
2022-11-01T04:43:19.124Z,1002.17
2022-11-01T04:44:19.165Z,1002.17
2022-11-01T04:45:19.112Z,1002.17
2022-11-01T04:46:19.103Z,1002.17
2022-11-01T04:47:19.081Z,1002.14
2022-11-01T04:48:19.160Z,1002.18
2022-11-01T04:49:19.060Z,1002.17
2022-11-01T04:50:19.042Z,1002.19
2022-11-01T04:51:19.027Z,1002.15
2022-11-01T04:52:19.099Z,1002.13
2022-11-01T04:53:19.102Z,1002.24
2022-11-01T04:54:19.033Z,1002.22
2022-11-01T04:55:19.009Z,1002.18
2022-11-01T04:56:18.983Z,1002.19
2022-11-01T04:57:18.994Z,1002.26
2022-11-01T04:58:18.991Z,1002.19
2022-11-01T04:59:18.961Z,1002.19
2022-11-01T05:00:19.000Z,1002.21
2022-11-01T05:01:19.189Z,1002.26
2022-11-01T05:02:19.083Z,1002.30
2022-11-01T05:03:18.910Z,1002.25
2022-11-01T05:04:18.924Z,1002.25
2022-11-01T05:05:18.908Z,1002.32
2022-11-01T05:06:18.920Z,1002.35
2022-11-01T05:07:18.951Z,1002.34
2022-11-01T05:08:18.896Z,1002.32
2022-11-01T05:09:18.854Z,1002.30
2022-11-01T05:10:18.823Z,1002.36
2022-11-01T05:11:18.963Z,1002.34
2022-11-01T05:12:18.837Z,1002.38
2022-11-01T05:13:18.842Z,1002.35
2022-11-01T05:14:18.803Z,1002.38
2022-11-01T05:15:18.785Z,1002.37
2022-11-01T05:16:20.186Z,1002.37
2022-11-01T05:17:19.614Z,1002.37
2022-11-01T05:18:18.763Z,1002.30
2022-11-01T05:19:18.820Z,1002.32
2022-11-01T05:20:18.794Z,1002.32
2022-11-01T05:21:18.790Z,1002.33
2022-11-01T05:22:18.732Z,1002.37
2022-11-01T05:23:18.683Z,1002.38
2022-11-01T05:24:18.715Z,1002.36
2022-11-01T05:25:18.805Z,1002.39
2022-11-01T05:26:18.658Z,1002.38
2022-11-01T05:27:18.632Z,1002.41
2022-11-01T05:28:18.651Z,1002.40
2022-11-01T05:29:24.903Z,1002.36
2022-11-01T05:30:19.644Z,1002.38
2022-11-01T05:31:18.612Z,1002.37
2022-11-01T05:32:18.683Z,1002.43
2022-11-01T05:33:19.472Z,1002.42
2022-11-01T05:34:18.708Z,1002.41
2022-11-01T05:35:19.755Z,1002.47
2022-11-01T05:36:18.872Z,1002.43
2022-11-01T05:37:18.601Z,1002.51
2022-11-01T05:38:18.545Z,1002.50
2022-11-01T05:39:18.515Z,1002.54
2022-11-01T05:40:18.523Z,1002.54
2022-11-01T05:41:18.516Z,1002.50
2022-11-01T05:42:18.494Z,1002.52
2022-11-01T05:43:18.475Z,1002.57
2022-11-01T05:44:18.511Z,1002.55
2022-11-01T05:45:18.479Z,1002.54
2022-11-01T05:46:18.443Z,1002.57
2022-11-01T05:47:18.439Z,1002.58
2022-11-01T05:48:18.692Z,1002.55
2022-11-01T05:49:18.411Z,1002.61
2022-11-01T05:50:19.224Z,1002.54
2022-11-01T05:51:19.245Z,1002.49
2022-11-01T05:52:18.432Z,1002.52
2022-11-01T05:53:18.388Z,1002.54
2022-11-01T05:54:18.529Z,1002.55
2022-11-01T05:55:18.339Z,1002.59
2022-11-01T05:56:18.344Z,1002.62
2022-11-01T05:57:18.340Z,1002.63
2022-11-01T05:58:18.361Z,1002.60
2022-11-01T05:59:18.334Z,1002.63
2022-11-01T06:00:18.415Z,1002.62
2022-11-01T06:01:19.370Z,1002.72
2022-11-01T06:02:18.361Z,1002.72
2022-11-01T06:03:18.687Z,1002.69
2022-11-01T06:04:18.267Z,1002.70
2022-11-01T06:05:18.713Z,1002.77
2022-11-01T06:06:18.710Z,1002.78
2022-11-01T06:07:18.251Z,1002.80
2022-11-01T06:08:18.722Z,1002.83
2022-11-01T06:09:18.343Z,1002.76
2022-11-01T06:10:18.191Z,1002.78
2022-11-01T06:11:19.377Z,1002.70
2022-11-01T06:12:19.277Z,1002.72
2022-11-01T06:13:18.117Z,1002.72
2022-11-01T06:14:18.139Z,1002.75
2022-11-01T06:15:18.120Z,1002.79
2022-11-01T06:16:18.117Z,1002.76
2022-11-01T06:17:19.307Z,1002.81
2022-11-01T06:18:18.109Z,1002.76
2022-11-01T06:19:18.064Z,1002.82
2022-11-01T06:20:19.043Z,1002.83
2022-11-01T06:21:18.102Z,1002.83
2022-11-01T06:22:18.110Z,1002.89
2022-11-01T06:23:18.039Z,1002.85
2022-11-01T06:24:18.045Z,1002.92
2022-11-01T06:25:18.042Z,1002.93
2022-11-01T06:26:18.140Z,1002.90
2022-11-01T06:27:19.359Z,1002.91
2022-11-01T06:28:18.030Z,1002.86
2022-11-01T06:29:17.986Z,1002.90
2022-11-01T06:30:17.976Z,1002.92
2022-11-01T06:31:18.142Z,1002.93
2022-11-01T06:32:18.011Z,1002.98
2022-11-01T06:33:17.945Z,1003.04
2022-11-01T06:34:17.933Z,1003.06
2022-11-01T06:35:17.918Z,1003.03
2022-11-01T06:36:18.015Z,1003.01
2022-11-01T06:37:17.859Z,1003.05
2022-11-01T06:38:18.090Z,1003.02
2022-11-01T06:39:17.857Z,1003.08
2022-11-01T06:40:17.843Z,1003.14
2022-11-01T06:41:17.820Z,1003.11
2022-11-01T06:42:17.832Z,1003.13
2022-11-01T06:43:17.831Z,1003.13
2022-11-01T06:44:17.800Z,1003.12
2022-11-01T06:45:17.839Z,1003.15
2022-11-01T06:46:18.580Z,1003.15
2022-11-01T06:47:17.771Z,1003.20
2022-11-01T06:48:17.799Z,1003.24
2022-11-01T06:49:19.208Z,1003.32
2022-11-01T06:50:17.830Z,1003.33
2022-11-01T06:51:17.898Z,1003.32
2022-11-01T06:52:17.741Z,1003.32
2022-11-01T06:53:18.917Z,1003.31
2022-11-01T06:54:17.728Z,1003.31
2022-11-01T06:55:17.701Z,1003.34
2022-11-01T06:56:18.100Z,1003.37
2022-11-01T06:57:18.155Z,1003.41
2022-11-01T06:58:17.653Z,1003.41
2022-11-01T06:59:17.609Z,1003.41
2022-11-01T07:00:17.673Z,1003.43
2022-11-01T07:01:17.724Z,1003.48
2022-11-01T07:02:19.901Z,1003.43
2022-11-01T07:03:17.790Z,1003.43
2022-11-01T07:04:18.398Z,1003.53
2022-11-01T07:05:18.799Z,1003.53
2022-11-01T07:06:17.629Z,1003.48
2022-11-01T07:07:18.611Z,1003.51
2022-11-01T07:08:18.556Z,1003.56
2022-11-01T07:09:17.670Z,1003.58
2022-11-01T07:10:17.632Z,1003.62
2022-11-01T07:11:18.768Z,1003.66
2022-11-01T07:12:18.632Z,1003.66
2022-11-01T07:13:18.545Z,1003.66
2022-11-01T07:14:17.495Z,1003.70
2022-11-01T07:15:17.519Z,1003.73
2022-11-01T07:16:17.468Z,1003.71
2022-11-01T07:17:17.457Z,1003.75
2022-11-01T07:18:18.574Z,1003.78
2022-11-01T07:19:18.611Z,1003.81
2022-11-01T07:20:17.462Z,1003.86
2022-11-01T07:21:17.478Z,1003.90
2022-11-01T07:22:18.191Z,1003.83
2022-11-01T07:23:17.395Z,1003.90
2022-11-01T07:24:18.515Z,1003.86
2022-11-01T07:25:17.397Z,1003.92
2022-11-01T07:26:17.465Z,1003.91
2022-11-01T07:27:20.558Z,1003.97
2022-11-01T07:28:17.353Z,1003.96
2022-11-01T07:29:17.437Z,1003.96
2022-11-01T07:30:17.353Z,1004.00
2022-11-01T07:31:18.348Z,1004.00
2022-11-01T07:32:17.332Z,1004.02
2022-11-01T07:33:18.924Z,1004.00
2022-11-01T07:34:18.079Z,1003.93
2022-11-01T07:35:18.233Z,1003.88
2022-11-01T07:36:17.283Z,1003.91
2022-11-01T07:37:21.827Z,1003.94
2022-11-01T07:38:17.656Z,1003.93
2022-11-01T07:39:18.645Z,1003.97
2022-11-01T07:40:18.278Z,1004.00
2022-11-01T07:41:45.219Z,1004.03
2022-11-01T07:42:18.321Z,1004.03
2022-11-01T07:43:17.149Z,1004.08
2022-11-01T07:45:28.269Z,1004.14
2022-11-01T07:46:27.367Z,1004.10
2022-11-01T07:47:27.334Z,1004.12
2022-11-01T07:48:27.208Z,1004.10
2022-11-01T07:49:27.200Z,1004.16
2022-11-01T07:50:27.175Z,1004.12
2022-11-01T07:51:27.307Z,1004.07
2022-11-01T07:52:27.184Z,1004.14
2022-11-01T07:53:27.144Z,1004.18
2022-11-01T07:54:27.338Z,1004.10
2022-11-01T07:55:27.459Z,1004.14
2022-11-01T07:56:27.471Z,1004.11
2022-11-01T07:57:27.113Z,1004.16
2022-11-01T07:58:27.131Z,1004.12
2022-11-01T07:59:27.095Z,1004.14
2022-11-01T08:00:27.278Z,1004.09
2022-11-01T08:01:27.636Z,1004.12
2022-11-01T08:02:27.405Z,1004.15
2022-11-01T08:03:27.116Z,1004.12
2022-11-01T08:04:27.041Z,1004.13
2022-11-01T08:05:27.099Z,1004.20
2022-11-01T08:06:27.004Z,1004.17
2022-11-01T08:07:27.177Z,1004.07
2022-11-01T08:08:27.224Z,1004.24
2022-11-01T08:09:27.142Z,1004.15
2022-11-01T08:10:27.043Z,1004.18
2022-11-01T08:11:26.951Z,1004.15
2022-11-01T08:12:26.929Z,1004.16
2022-11-01T08:13:26.920Z,1004.19
2022-11-01T08:14:27.040Z,1004.24
2022-11-01T08:15:27.236Z,1004.21
2022-11-01T08:16:27.252Z,1004.29
2022-11-01T08:17:27.264Z,1004.27
2022-11-01T08:18:26.911Z,1004.37
2022-11-01T08:19:26.858Z,1004.42
2022-11-01T08:20:27.018Z,1004.57
2022-11-01T08:21:26.832Z,1004.45
2022-11-01T08:22:26.820Z,1004.45
2022-11-01T08:23:26.947Z,1004.46
2022-11-01T08:24:26.808Z,1004.47
2022-11-01T08:25:26.845Z,1004.47
2022-11-01T08:26:26.781Z,1004.52
2022-11-01T08:27:28.300Z,1004.47
2022-11-01T08:28:27.035Z,1004.59
2022-11-01T08:29:27.003Z,1004.69
2022-11-01T08:30:26.742Z,1004.72
2022-11-01T08:31:26.736Z,1004.68
2022-11-01T08:32:27.041Z,1004.70
2022-11-01T08:33:26.703Z,1004.86
2022-11-01T08:34:27.396Z,1004.75
2022-11-01T08:35:26.680Z,1004.75
2022-11-01T08:36:26.799Z,1004.72
2022-11-01T08:37:26.929Z,1004.74
2022-11-01T08:38:26.644Z,1004.89
2022-11-01T08:39:26.640Z,1005.02
2022-11-01T08:40:26.626Z,1004.87
2022-11-01T08:41:26.732Z,1004.99
2022-11-01T08:42:26.612Z,1005.07
2022-11-01T08:43:26.629Z,1004.98
2022-11-01T08:44:26.581Z,1005.03
2022-11-01T08:45:26.612Z,1004.96
2022-11-01T08:46:26.597Z,1005.26
2022-11-01T08:47:26.553Z,1004.99
2022-11-01T08:48:26.600Z,1005.09
2022-11-01T08:49:26.515Z,1005.14
2022-11-01T08:50:26.612Z,1005.23
2022-11-01T08:51:26.523Z,1005.16
2022-11-01T08:52:26.483Z,1005.15
2022-11-01T08:53:26.479Z,1005.21
2022-11-01T08:54:26.537Z,1005.08
2022-11-01T08:55:26.581Z,1005.15
2022-11-01T08:56:26.599Z,1005.17
2022-11-01T08:57:26.547Z,1005.15
2022-11-01T08:58:26.424Z,1005.17
2022-11-01T08:59:26.603Z,1005.22
2022-11-01T09:00:26.614Z,1005.24
2022-11-01T09:01:26.784Z,1005.29
2022-11-01T09:02:26.806Z,1005.25
2022-11-01T09:03:26.372Z,1005.32
2022-11-01T09:04:26.387Z,1005.34
2022-11-01T09:05:26.515Z,1005.33
2022-11-01T09:06:26.346Z,1005.37
2022-11-01T09:07:26.381Z,1005.29
2022-11-01T09:08:26.322Z,1005.39
2022-11-01T09:09:26.511Z,1005.57
2022-11-01T09:10:26.295Z,1005.40
2022-11-01T09:11:26.496Z,1005.57
2022-11-01T09:12:26.319Z,1005.35
2022-11-01T09:13:26.257Z,1005.47
2022-11-01T09:14:26.471Z,1005.49
2022-11-01T09:15:27.197Z,1005.43
2022-11-01T09:16:26.330Z,1005.46
2022-11-01T09:17:26.309Z,1005.60
2022-11-01T09:18:26.303Z,1005.59
2022-11-01T09:19:26.319Z,1005.68
2022-11-01T09:20:26.174Z,1005.60
2022-11-01T09:21:30.563Z,1005.63
2022-11-01T09:22:27.155Z,1005.72
2022-11-01T09:23:26.143Z,1005.71
2022-11-01T09:24:26.205Z,1005.69
2022-11-01T09:25:26.162Z,1005.55
2022-11-01T09:26:26.167Z,1005.65
2022-11-01T09:27:26.134Z,1005.59
2022-11-01T09:28:28.925Z,1005.64
2022-11-01T09:29:27.150Z,1005.79
2022-11-01T09:30:26.383Z,1005.78
2022-11-01T09:31:26.185Z,1005.75
2022-11-01T09:32:26.048Z,1005.62
2022-11-01T09:33:26.215Z,1005.65
2022-11-01T09:34:26.216Z,1005.73
2022-11-01T09:35:26.012Z,1005.60
2022-11-01T09:36:26.161Z,1005.66
2022-11-01T09:37:25.991Z,1005.69
2022-11-01T09:38:26.080Z,1005.81
2022-11-01T09:39:26.108Z,1005.73
2022-11-01T09:40:26.244Z,1005.68
2022-11-01T09:41:26.043Z,1005.80
2022-11-01T09:42:26.504Z,1005.84
2022-11-01T09:43:26.591Z,1005.69
2022-11-01T09:44:25.908Z,1005.71
2022-11-01T09:45:25.957Z,1005.73
2022-11-01T09:46:25.931Z,1005.78
2022-11-01T09:47:25.917Z,1005.67
2022-11-01T09:48:25.860Z,1005.88
2022-11-01T09:49:25.903Z,1005.67
2022-11-01T09:50:25.897Z,1005.72
2022-11-01T09:51:25.839Z,1005.83
2022-11-01T09:52:25.820Z,1005.94
2022-11-01T09:53:25.923Z,1005.88
2022-11-01T09:54:25.798Z,1005.74
2022-11-01T09:55:25.859Z,1005.82
2022-11-01T09:56:29.004Z,1005.86
2022-11-01T09:57:25.786Z,1005.90
2022-11-01T09:58:25.791Z,1005.64
2022-11-01T09:59:25.805Z,1005.85
2022-11-01T10:00:25.815Z,1005.86
2022-11-01T10:01:25.840Z,1005.89
2022-11-01T10:02:25.801Z,1005.86
2022-11-01T10:03:25.803Z,1005.88
2022-11-01T10:04:25.833Z,1005.86
2022-11-01T10:05:25.688Z,1005.94
2022-11-01T10:06:25.876Z,1005.88
2022-11-01T10:07:25.680Z,1005.92
2022-11-01T10:08:25.674Z,1005.99
2022-11-01T10:09:25.628Z,1005.84
2022-11-01T10:10:25.634Z,1005.85
2022-11-01T10:11:25.635Z,1005.88
2022-11-01T10:12:25.607Z,1005.78
2022-11-01T10:13:25.988Z,1005.83
2022-11-01T10:14:25.691Z,1005.82
2022-11-01T10:15:25.574Z,1005.89
2022-11-01T10:16:25.874Z,1005.96
2022-11-01T10:17:25.674Z,1006.11
2022-11-01T10:18:25.541Z,1006.10
2022-11-01T10:19:25.529Z,1006.03
2022-11-01T10:20:25.530Z,1006.14
2022-11-01T10:21:28.795Z,1006.11
2022-11-01T10:22:25.519Z,1006.07
2022-11-01T10:23:25.510Z,1006.14
2022-11-01T10:24:25.500Z,1006.12
2022-11-01T10:25:25.485Z,1006.05
2022-11-01T10:26:25.487Z,1006.16
2022-11-01T10:27:25.458Z,1006.27
2022-11-01T10:28:25.433Z,1006.37
2022-11-01T10:29:25.426Z,1006.24
2022-11-01T10:30:25.435Z,1006.45
2022-11-01T10:31:25.484Z,1006.41
2022-11-01T10:32:25.430Z,1006.36
2022-11-01T10:33:25.461Z,1006.24
2022-11-01T10:34:25.567Z,1006.24
2022-11-01T10:35:25.365Z,1006.27
2022-11-01T10:36:25.377Z,1006.37
2022-11-01T10:37:25.345Z,1006.34
2022-11-01T10:38:41.536Z,1006.31
2022-11-01T10:40:26.306Z,1006.39
2022-11-01T10:41:25.807Z,1006.46
2022-11-01T10:42:25.291Z,1006.48
2022-11-01T10:43:25.324Z,1006.41
2022-11-01T10:44:25.349Z,1006.50
2022-11-01T10:45:25.471Z,1006.57
2022-11-01T10:46:25.234Z,1006.65
2022-11-01T10:47:25.241Z,1006.39
2022-11-01T10:48:25.392Z,1006.43
2022-11-01T10:49:35.039Z,1006.45
2022-11-01T10:50:26.196Z,1006.46
2022-11-01T10:51:27.857Z,1006.47
2022-11-01T10:52:25.230Z,1006.50
2022-11-01T10:53:25.182Z,1006.62
2022-11-01T10:54:25.179Z,1006.58
2022-11-01T10:55:25.149Z,1006.57
2022-11-01T10:56:25.326Z,1006.55
2022-11-01T10:57:25.111Z,1007.28
2022-11-01T10:58:25.334Z,1006.51
2022-11-01T10:59:25.284Z,1006.57
2022-11-01T11:00:25.065Z,1006.50
2022-11-01T11:01:25.572Z,1006.64
2022-11-01T11:02:25.145Z,1006.60
2022-11-01T11:03:25.118Z,1006.67
2022-11-01T11:04:25.082Z,1006.53
2022-11-01T11:05:25.259Z,1006.62
2022-11-01T11:06:25.304Z,1006.60
2022-11-01T11:07:25.024Z,1006.57
2022-11-01T11:08:25.039Z,1006.51
2022-11-01T11:09:25.062Z,1006.55
2022-11-01T11:10:25.055Z,1006.87
2022-11-01T11:11:25.171Z,1006.53
2022-11-01T11:12:25.231Z,1006.65
2022-11-01T11:13:24.944Z,1006.95
2022-11-01T11:14:24.978Z,1006.81
2022-11-01T11:15:25.078Z,1006.83
2022-11-01T11:16:25.078Z,1006.60
2022-11-01T11:17:24.909Z,1006.66
2022-11-01T11:18:24.900Z,1006.68
2022-11-01T11:19:24.921Z,1006.78
2022-11-01T11:20:25.256Z,1006.69
2022-11-01T11:21:28.061Z,1006.63
2022-11-01T11:22:24.888Z,1006.85
2022-11-01T11:23:24.944Z,1006.68
2022-11-01T11:24:24.838Z,1006.60
2022-11-01T11:25:24.838Z,1006.65
2022-11-01T11:26:24.856Z,1006.73
2022-11-01T11:27:24.818Z,1006.51
2022-11-01T11:28:24.821Z,1006.56
2022-11-01T11:29:24.847Z,1006.44
2022-11-01T11:30:24.769Z,1006.67
2022-11-01T11:31:24.836Z,1006.73
2022-11-01T11:32:24.862Z,1006.63
2022-11-01T11:33:24.842Z,1006.59
2022-11-01T11:34:24.763Z,1006.65
2022-11-01T11:35:24.719Z,1006.64
2022-11-01T11:36:24.756Z,1006.64
2022-11-01T11:37:24.736Z,1006.58
2022-11-01T11:38:24.682Z,1006.63
2022-11-01T11:39:24.921Z,1006.48
2022-11-01T11:40:24.762Z,1006.50
2022-11-01T11:41:24.667Z,1006.46
2022-11-01T11:42:24.635Z,1006.52
2022-11-01T11:43:24.685Z,1006.47
2022-11-01T11:44:24.614Z,1006.55
2022-11-01T11:45:24.657Z,1006.62
2022-11-01T11:46:24.826Z,1006.49
2022-11-01T11:47:24.600Z,1006.63
2022-11-01T11:48:24.573Z,1006.47
2022-11-01T11:49:24.578Z,1006.64
2022-11-01T11:50:24.581Z,1006.60
2022-11-01T11:51:24.577Z,1006.39
2022-11-01T11:52:28.566Z,1006.54
2022-11-01T11:53:24.568Z,1006.59
2022-11-01T11:54:24.577Z,1006.48
2022-11-01T11:55:24.578Z,1006.55
2022-11-01T11:56:24.496Z,1006.61
2022-11-01T11:57:24.579Z,1006.54
2022-11-01T11:58:24.584Z,1006.67
2022-11-01T11:59:24.575Z,1006.58
2022-11-01T12:00:24.554Z,1006.55
2022-11-01T12:01:24.604Z,1006.58
2022-11-01T12:02:24.460Z,1006.41
2022-11-01T12:03:24.568Z,1006.37
2022-11-01T12:04:24.521Z,1006.39
2022-11-01T12:05:24.447Z,1006.40
2022-11-01T12:06:24.569Z,1006.31
2022-11-01T12:07:24.575Z,1006.35